createdAt,value
2019-05-07T00:01:16.475Z,97035.11
2019-05-07T00:03:46.258Z,97044.21
2019-05-07T00:06:15.890Z,97044.06
2019-05-07T00:08:45.910Z,97049.45
2019-05-07T00:11:15.724Z,97049.57
2019-05-07T00:13:45.457Z,97056.94
2019-05-07T00:16:14.867Z,97061.55
2019-05-07T00:18:44.607Z,97063.45
2019-05-07T00:21:14.398Z,97075.47
2019-05-07T00:23:44.112Z,97077.52
2019-05-07T00:26:13.972Z,97077.55
2019-05-07T00:28:43.725Z,97079.20
2019-05-07T00:31:13.669Z,97075.05
2019-05-07T00:33:43.526Z,97075.13
2019-05-07T00:36:35.121Z,97082.34
2019-05-07T00:39:27.908Z,97076.53
2019-05-07T00:42:16.258Z,97079.88
2019-05-07T00:45:15.851Z,97085.72
2019-05-07T00:47:33.015Z,97091.20
2019-05-07T00:50:07.559Z,97092.13
2019-05-07T00:52:36.985Z,97092.98
2019-05-07T00:55:06.923Z,97087.03
2019-05-07T00:57:36.740Z,97099.79
2019-05-07T01:00:07.125Z,97091.20
2019-05-07T01:02:36.898Z,97092.20
2019-05-07T01:05:06.676Z,97091.80
2019-05-07T01:07:36.493Z,97101.41
2019-05-07T01:10:06.999Z,97093.31
2019-05-07T01:12:36.489Z,97087.28
2019-05-07T01:15:06.684Z,97094.20
2019-05-07T01:17:36.353Z,97089.90
2019-05-07T01:20:06.704Z,97099.06
2019-05-07T01:22:36.240Z,97101.61
2019-05-07T01:25:06.369Z,97108.09
2019-05-07T01:27:36.100Z,97104.16
2019-05-07T01:30:06.300Z,97101.17
2019-05-07T01:33:02.640Z,97110.41
2019-05-07T01:35:49.422Z,97105.75
2019-05-07T01:38:19.708Z,97107.58
2019-05-07T01:40:49.228Z,97112.81
2019-05-07T01:43:18.702Z,97106.20
2019-05-07T01:45:49.901Z,97111.51
2019-05-07T01:48:22.861Z,97113.78
2019-05-07T01:50:52.560Z,97118.64
2019-05-07T01:53:22.807Z,97123.36
2019-05-07T01:55:52.827Z,97118.91
2019-05-07T01:58:22.544Z,97120.16
2019-05-07T02:00:53.221Z,97119.95
2019-05-07T02:03:29.051Z,97118.33
2019-05-07T02:06:02.947Z,97128.80
2019-05-07T02:08:54.772Z,97128.01
2019-05-07T02:11:30.079Z,97127.35
2019-05-07T02:14:01.919Z,97142.86
2019-05-07T02:16:32.693Z,97141.34
2019-05-07T02:19:02.581Z,97147.17
2019-05-07T02:21:32.932Z,97148.03
2019-05-07T02:24:03.359Z,97147.25
2019-05-07T02:26:32.982Z,97147.66
2019-05-07T02:29:02.998Z,97147.53
2019-05-07T02:31:33.760Z,97148.70
2019-05-07T02:34:03.885Z,97151.97
2019-05-07T02:36:34.286Z,97160.89
2019-05-07T02:39:16.587Z,97163.66
2019-05-07T02:41:46.307Z,97162.34
2019-05-07T02:44:16.033Z,97170.59
2019-05-07T02:46:52.761Z,97169.28
2019-05-07T02:49:44.701Z,97167.66
2019-05-07T02:52:35.795Z,97176.86
2019-05-07T02:55:14.976Z,97172.63
2019-05-07T02:57:44.801Z,97185.08
2019-05-07T03:00:19.134Z,97185.41
2019-05-07T03:02:46.661Z,97196.65
2019-05-07T03:05:16.340Z,97191.86
2019-05-07T03:07:46.275Z,97192.92
2019-05-07T03:10:16.228Z,97185.43
2019-05-07T03:12:45.713Z,97183.11
2019-05-07T03:15:15.763Z,97183.60
2019-05-07T03:17:45.662Z,97183.58
2019-05-07T03:20:22.807Z,97182.27
2019-05-07T03:22:53.800Z,97185.91
2019-05-07T03:25:27.263Z,97190.22
2019-05-07T03:27:56.865Z,97190.76
2019-05-07T03:30:45.564Z,97190.79
2019-05-07T03:33:26.656Z,97192.00
2019-05-07T03:35:57.575Z,97195.42
2019-05-07T03:38:27.441Z,97194.14
2019-05-07T03:40:56.854Z,97195.07
2019-05-07T03:43:27.168Z,97198.45
2019-05-07T03:46:17.337Z,97200.59
2019-05-07T03:48:47.943Z,97213.05
2019-05-07T03:51:17.645Z,97210.49
2019-05-07T03:53:47.443Z,97209.53
2019-05-07T03:56:17.094Z,97222.34
2019-05-07T03:58:46.600Z,97224.16
2019-05-07T04:01:16.449Z,97225.02
2019-05-07T04:03:46.226Z,97233.73
2019-05-07T04:06:15.960Z,97233.22
2019-05-07T04:08:45.478Z,97236.73
2019-05-07T04:11:15.213Z,97245.10
2019-05-07T04:13:44.959Z,97248.67
2019-05-07T04:16:14.681Z,97244.72
2019-05-07T04:18:44.323Z,97249.09
2019-05-07T04:21:14.434Z,97252.59
2019-05-07T04:23:44.303Z,97251.42
2019-05-07T04:26:36.106Z,97260.84
2019-05-07T04:29:08.135Z,97254.59
2019-05-07T04:31:43.447Z,97259.98
2019-05-07T04:34:23.782Z,97254.23
2019-05-07T04:36:53.720Z,97252.92
2019-05-07T04:39:23.564Z,97256.41
2019-05-07T04:41:53.337Z,97260.66
2019-05-07T04:44:23.707Z,97257.91
2019-05-07T04:46:53.645Z,97255.19
2019-05-07T04:49:24.056Z,97258.03
2019-05-07T04:52:04.028Z,97261.36
2019-05-07T04:54:34.017Z,97266.91
2019-05-07T04:57:03.866Z,97259.63
2019-05-07T04:59:33.703Z,97266.40
2019-05-07T05:02:13.519Z,97267.90
2019-05-07T05:04:43.930Z,97266.74
2019-05-07T05:07:13.915Z,97269.38
2019-05-07T05:09:43.602Z,97272.15
2019-05-07T05:12:13.310Z,97274.54
2019-05-07T05:14:43.786Z,97273.09
2019-05-07T05:17:13.867Z,97270.09
2019-05-07T05:19:43.966Z,97278.17
2019-05-07T05:22:23.057Z,97284.66
2019-05-07T05:25:12.112Z,97289.11
2019-05-07T05:27:42.984Z,97290.05
2019-05-07T05:30:18.628Z,97291.30
2019-05-07T05:32:48.335Z,97287.77
2019-05-07T05:35:18.313Z,97289.70
2019-05-07T05:37:48.104Z,97296.75
2019-05-07T05:40:18.394Z,97290.56
2019-05-07T05:42:54.118Z,97293.41
2019-05-07T05:45:38.838Z,97293.03
2019-05-07T05:48:08.827Z,97292.02
2019-05-07T05:51:02.610Z,97293.27
2019-05-07T05:53:37.934Z,97295.87
2019-05-07T05:56:13.645Z,97295.95
2019-05-07T05:59:05.204Z,97294.12
2019-05-07T06:02:02.531Z,97295.42
2019-05-07T06:04:47.814Z,97294.84
2019-05-07T06:07:28.341Z,97299.36
2019-05-07T06:10:06.842Z,97303.84
2019-05-07T06:12:44.779Z,97302.94
2019-05-07T06:15:33.566Z,97302.77
2019-05-07T06:18:21.130Z,97310.08
2019-05-07T06:21:02.967Z,97303.66
2019-05-07T06:23:37.633Z,97312.89
2019-05-07T06:26:07.396Z,97314.62
2019-05-07T06:28:37.226Z,97323.70
2019-05-07T06:31:06.896Z,97326.10
2019-05-07T06:33:36.333Z,97311.12
2019-05-07T06:36:05.985Z,97320.27
2019-05-07T06:38:42.705Z,97322.51
2019-05-07T06:41:23.366Z,97321.38
2019-05-07T06:44:02.663Z,97317.33
2019-05-07T06:46:32.395Z,97315.84
2019-05-07T06:49:02.331Z,97326.00
2019-05-07T06:51:32.853Z,97317.31
2019-05-07T06:54:02.971Z,97328.22
2019-05-07T06:56:32.812Z,97324.36
2019-05-07T06:59:26.927Z,97323.50
2019-05-07T07:02:22.557Z,97329.55
2019-05-07T07:04:56.811Z,97331.41
2019-05-07T07:07:37.584Z,97330.86
2019-05-07T07:10:24.914Z,97329.34
2019-05-07T07:12:54.683Z,97329.38
2019-05-07T07:15:24.468Z,97331.47
2019-05-07T07:17:54.282Z,97332.24
2019-05-07T07:20:23.935Z,97334.49
2019-05-07T07:22:53.776Z,97338.20
2019-05-07T07:25:23.435Z,97338.98
2019-05-07T07:27:52.951Z,97337.98
2019-05-07T07:30:29.628Z,97340.37
2019-05-07T07:33:02.802Z,97338.61
2019-05-07T07:35:32.575Z,97340.61
2019-05-07T07:38:22.391Z,97342.61
2019-05-07T07:41:02.120Z,97341.47
2019-05-07T07:43:32.645Z,97338.70
2019-05-07T07:46:02.441Z,97340.30
2019-05-07T07:48:32.302Z,97351.70
2019-05-07T07:51:03.237Z,97351.91
2019-05-07T07:53:35.422Z,97349.56
2019-05-07T07:56:23.065Z,97358.61
2019-05-07T07:59:03.764Z,97351.05
2019-05-07T08:01:42.564Z,97347.92
2019-05-07T08:04:12.511Z,97362.07
2019-05-07T08:06:42.206Z,97364.11
2019-05-07T08:09:12.996Z,97359.59
2019-05-07T08:11:43.003Z,97361.66
2019-05-07T08:14:12.866Z,97366.52
2019-05-07T08:16:43.039Z,97364.34
2019-05-07T08:19:21.733Z,97369.01
2019-05-07T08:21:46.418Z,97376.93
2019-05-07T08:24:16.403Z,97374.74
2019-05-07T08:26:46.123Z,97366.38
2019-05-07T08:29:15.900Z,97370.73
2019-05-07T08:32:02.349Z,97369.52
2019-05-07T08:34:39.103Z,97373.92
2019-05-07T08:37:08.963Z,97374.00
2019-05-07T08:39:38.553Z,97388.02
2019-05-07T08:42:08.296Z,97380.41
2019-05-07T08:44:44.114Z,97385.61
2019-05-07T08:47:32.911Z,97368.16
2019-05-07T08:50:02.980Z,97380.99
2019-05-07T08:52:32.850Z,97384.58
2019-05-07T08:55:02.678Z,97381.59
2019-05-07T08:57:32.538Z,97377.38
2019-05-07T09:00:04.661Z,97370.16
2019-05-07T09:02:33.543Z,97371.66
2019-05-07T09:05:03.338Z,97370.13
2019-05-07T09:07:33.069Z,97362.81
2019-05-07T09:10:02.959Z,97365.59
2019-05-07T09:12:32.666Z,97361.97
2019-05-07T09:15:02.376Z,97370.73
2019-05-07T09:17:32.183Z,97370.48
2019-05-07T09:20:02.715Z,97355.05
2019-05-07T09:22:32.519Z,97362.52
2019-05-07T09:25:03.051Z,97369.54
2019-05-07T09:27:38.820Z,97361.14
2019-05-07T09:30:28.641Z,97358.34
2019-05-07T09:33:13.026Z,97359.95
2019-05-07T09:35:46.778Z,97350.55
2019-05-07T09:38:16.224Z,97363.55
2019-05-07T09:40:46.056Z,97371.97
2019-05-07T09:43:15.830Z,97369.57
2019-05-07T09:45:45.612Z,97374.94
2019-05-07T09:48:15.434Z,97381.42
2019-05-07T09:50:44.978Z,97379.02
2019-05-07T09:53:14.830Z,97370.94
2019-05-07T09:55:44.623Z,97393.17
2019-05-07T09:58:14.179Z,97389.20
2019-05-07T10:00:43.974Z,97385.48
2019-05-07T10:03:13.836Z,97392.81
2019-05-07T10:05:43.473Z,97388.77
2019-05-07T10:08:13.245Z,97382.82
2019-05-07T10:10:44.543Z,97380.73
2019-05-07T10:13:24.348Z,97382.45
2019-05-07T10:15:54.209Z,97381.14
2019-05-07T10:18:23.923Z,97382.66
2019-05-07T10:20:53.645Z,97383.22
2019-05-07T10:23:23.408Z,97390.30
2019-05-07T10:25:56.758Z,97390.39
2019-05-07T10:28:26.461Z,97392.48
2019-05-07T10:30:55.990Z,97397.62
2019-05-07T10:33:25.818Z,97388.83
2019-05-07T10:35:55.228Z,97389.59
2019-05-07T10:38:25.102Z,97384.80
2019-05-07T10:40:54.971Z,97381.30
2019-05-07T10:43:24.975Z,97378.28
2019-05-07T10:46:13.400Z,97387.34
2019-05-07T10:48:55.144Z,97384.23
2019-05-07T10:51:25.236Z,97388.47
2019-05-07T10:53:54.778Z,97392.34
2019-05-07T10:56:24.630Z,97390.78
2019-05-07T10:58:54.237Z,97389.79
2019-05-07T11:01:32.863Z,97394.22
2019-05-07T11:04:02.569Z,97394.09
2019-05-07T11:06:32.353Z,97401.14
2019-05-07T11:09:01.988Z,97396.80
2019-05-07T11:11:31.956Z,97404.63
2019-05-07T11:14:02.028Z,97402.62
2019-05-07T11:16:36.112Z,97401.21
2019-05-07T11:19:06.153Z,97404.66
2019-05-07T11:21:35.568Z,97406.95
2019-05-07T11:24:05.408Z,97401.70
2019-05-07T11:26:35.032Z,97408.97
2019-05-07T11:29:04.774Z,97413.20
2019-05-07T11:31:34.175Z,97407.82
2019-05-07T11:34:04.057Z,97414.16
2019-05-07T11:36:34.393Z,97423.98
2019-05-07T11:39:05.595Z,97428.67
2019-05-07T11:41:45.798Z,97413.75
2019-05-07T11:44:19.954Z,97420.16
2019-05-07T11:47:26.936Z,97429.62
2019-05-07T11:50:25.016Z,97420.11
2019-05-07T11:53:00.447Z,97422.95
2019-05-07T11:55:29.953Z,97432.55
2019-05-07T11:57:59.376Z,97436.37
2019-05-07T12:00:37.215Z,97442.59
2019-05-07T12:03:07.116Z,97448.68
2019-05-07T12:05:36.956Z,97439.38
2019-05-07T12:08:06.397Z,97447.66
2019-05-07T12:10:36.209Z,97455.52
2019-05-07T12:13:06.147Z,97451.42
2019-05-07T12:15:35.664Z,97456.06
2019-05-07T12:18:05.275Z,97456.70
2019-05-07T12:20:34.801Z,97465.73
2019-05-07T12:23:04.837Z,97463.00
2019-05-07T12:25:34.255Z,97475.23
2019-05-07T12:28:03.655Z,97468.98
2019-05-07T12:30:55.395Z,97458.65
2019-05-07T12:33:44.095Z,97474.40
2019-05-07T12:36:14.616Z,97472.39
2019-05-07T12:38:44.503Z,97479.52
2019-05-07T12:41:34.275Z,97484.88
2019-05-07T12:44:06.130Z,97480.89
2019-05-07T12:46:36.187Z,97480.48
2019-05-07T12:49:06.726Z,97485.52
2019-05-07T12:51:42.962Z,97486.95
2019-05-07T12:54:29.917Z,97498.77
2019-05-07T12:56:59.675Z,97499.91
2019-05-07T12:59:29.584Z,97496.45
2019-05-07T13:02:33.942Z,97496.30
2019-05-07T13:04:49.090Z,97508.58
2019-05-07T13:07:36.461Z,97504.74
2019-05-07T13:10:08.509Z,97506.70
2019-05-07T13:12:37.528Z,97508.95
2019-05-07T13:15:20.539Z,97517.19
2019-05-07T13:17:39.034Z,97512.78
2019-05-07T13:20:08.768Z,97507.27
2019-05-07T13:22:38.456Z,97521.70
2019-05-07T13:25:08.465Z,97526.57
2019-05-07T13:27:40.145Z,97535.08
2019-05-07T13:30:11.803Z,97535.23
2019-05-07T13:32:44.990Z,97544.27
2019-05-07T13:35:15.267Z,97547.48
2019-05-07T13:37:51.232Z,97554.42
2019-05-07T13:40:31.607Z,97551.89
2019-05-07T13:43:14.430Z,97562.92
2019-05-07T13:45:54.945Z,97565.45
2019-05-07T13:48:25.354Z,97572.67
2019-05-07T13:50:54.767Z,97573.83
2019-05-07T13:53:25.104Z,97579.39
2019-05-07T13:55:54.771Z,97574.86
2019-05-07T13:58:24.183Z,97571.05
2019-05-07T14:01:24.684Z,97569.71
2019-05-07T14:03:54.516Z,97579.07
2019-05-07T14:06:39.789Z,97582.99
2019-05-07T14:09:23.918Z,97585.22
2019-05-07T14:11:52.792Z,97590.30
2019-05-07T14:14:22.932Z,97597.73
2019-05-07T14:16:53.279Z,97592.89
2019-05-07T14:19:22.864Z,97599.93
2019-05-07T14:21:52.807Z,97607.05
2019-05-07T14:24:22.671Z,97603.48
2019-05-07T14:26:52.940Z,97608.24
2019-05-07T14:29:24.841Z,97605.09
2019-05-07T14:32:04.988Z,97612.21
2019-05-07T14:34:38.510Z,97609.28
2019-05-07T14:37:24.651Z,97620.59
2019-05-07T14:39:54.410Z,97627.87
2019-05-07T14:42:32.708Z,97622.59
2019-05-07T14:45:01.795Z,97645.02
2019-05-07T14:47:31.321Z,97649.77
2019-05-07T14:50:02.087Z,97653.23
2019-05-07T14:52:33.766Z,97658.31
2019-05-07T14:55:05.345Z,97660.53
2019-05-07T14:57:35.685Z,97671.23
2019-05-07T15:00:05.950Z,97667.41
2019-05-07T15:02:35.545Z,97673.21
2019-05-07T15:05:05.516Z,97684.50
2019-05-07T15:07:35.157Z,97679.84
2019-05-07T15:10:05.354Z,97675.17
2019-05-07T15:12:34.788Z,97675.89
2019-05-07T15:15:04.951Z,97679.86
2019-05-07T15:17:59.623Z,97674.96
2019-05-07T15:20:29.301Z,97680.86
2019-05-07T15:23:06.828Z,97676.89
2019-05-07T15:25:36.711Z,97676.83
2019-05-07T15:28:06.982Z,97672.02
2019-05-07T15:30:49.826Z,97676.34
2019-05-07T15:33:19.352Z,97671.44
2019-05-07T15:35:48.768Z,97680.12
2019-05-07T15:38:18.577Z,97682.31
2019-05-07T15:40:48.303Z,97685.93
2019-05-07T15:43:18.187Z,97691.64
2019-05-07T15:45:47.606Z,97690.62
2019-05-07T15:48:17.170Z,97695.03
2019-05-07T15:50:46.689Z,97699.80
2019-05-07T15:53:21.866Z,97696.78
2019-05-07T15:55:52.282Z,97696.63
2019-05-07T15:58:22.799Z,97701.37
2019-05-07T16:00:52.457Z,97706.75
2019-05-07T16:03:28.125Z,97704.34
2019-05-07T16:06:03.565Z,97713.45
2019-05-07T16:08:34.713Z,97711.70
2019-05-07T16:11:04.346Z,97705.61
2019-05-07T16:13:36.545Z,97710.19
2019-05-07T16:16:05.974Z,97725.20
2019-05-07T16:18:42.158Z,97736.36
2019-05-07T16:21:12.153Z,97741.25
2019-05-07T16:23:41.870Z,97738.56
2019-05-07T16:26:12.960Z,97742.41
2019-05-07T16:28:42.761Z,97740.00
2019-05-07T16:31:12.326Z,97745.49
2019-05-07T16:33:43.018Z,97748.12
2019-05-07T16:36:12.725Z,97750.69
2019-05-07T16:38:42.417Z,97748.38
2019-05-07T16:41:13.579Z,97752.14
2019-05-07T16:43:43.835Z,97753.84
2019-05-07T16:46:13.538Z,97759.30
2019-05-07T16:48:43.908Z,97763.91
2019-05-07T16:51:13.357Z,97763.34
2019-05-07T16:53:43.109Z,97769.60
2019-05-07T16:56:12.929Z,97769.91
2019-05-07T16:58:46.452Z,97772.47
2019-05-07T17:01:16.012Z,97778.11
2019-05-07T17:03:51.970Z,97788.65
2019-05-07T17:06:24.757Z,97786.64
2019-05-07T17:09:13.458Z,97788.66
2019-05-07T17:11:43.961Z,97791.64
2019-05-07T17:14:13.670Z,97797.81
2019-05-07T17:16:43.349Z,97796.64
2019-05-07T17:19:14.624Z,97794.04
2019-05-07T17:21:44.478Z,97791.91
2019-05-07T17:24:14.339Z,97802.61
2019-05-07T17:26:43.876Z,97795.99
2019-05-07T17:29:13.314Z,97801.19
2019-05-07T17:31:43.673Z,97806.37
2019-05-07T17:34:13.813Z,97805.73
2019-05-07T17:36:44.907Z,97800.43
2019-05-07T17:39:15.089Z,97800.93
2019-05-07T17:41:45.576Z,97803.49
2019-05-07T17:44:15.337Z,97804.03
2019-05-07T17:46:46.249Z,97812.23
2019-05-07T17:49:16.236Z,97808.23
2019-05-07T17:51:46.803Z,97807.96
2019-05-07T17:54:16.824Z,97814.52
2019-05-07T17:56:46.515Z,97810.97
2019-05-07T17:59:15.931Z,97814.59
2019-05-07T18:02:01.962Z,97829.23
2019-05-07T18:04:46.710Z,97825.69
2019-05-07T18:07:04.385Z,97836.18
2019-05-07T18:09:34.309Z,97842.66
2019-05-07T18:12:04.402Z,97844.36
2019-05-07T18:14:33.842Z,97847.65
2019-05-07T18:17:12.601Z,97841.20
2019-05-07T18:19:43.179Z,97850.40
2019-05-07T18:22:12.972Z,97856.45
2019-05-07T18:24:42.487Z,97862.13
2019-05-07T18:27:17.892Z,97858.47
2019-05-07T18:29:47.915Z,97867.97
2019-05-07T18:32:17.391Z,97873.70
2019-05-07T18:34:46.811Z,97871.84
2019-05-07T18:37:19.375Z,97865.29
2019-05-07T18:39:48.029Z,97868.89
2019-05-07T18:42:17.443Z,97876.83
2019-05-07T18:44:46.978Z,97875.56
2019-05-07T18:47:16.436Z,97877.92
2019-05-07T18:49:46.023Z,97884.03
2019-05-07T18:52:15.546Z,97890.86
2019-05-07T18:54:47.875Z,97891.25
2019-05-07T18:57:16.697Z,97891.30
2019-05-07T18:59:46.379Z,97894.73
2019-05-07T19:02:16.230Z,97890.70
2019-05-07T19:04:45.868Z,97896.20
2019-05-07T19:07:15.726Z,97896.70
2019-05-07T19:09:47.760Z,97897.75
2019-05-07T19:12:17.254Z,97891.56
2019-05-07T19:14:46.837Z,97900.20
2019-05-07T19:17:16.997Z,97896.31
2019-05-07T19:19:47.126Z,97898.63
2019-05-07T19:22:17.057Z,97895.39
2019-05-07T19:24:48.208Z,97893.70
2019-05-07T19:27:17.902Z,97891.14
2019-05-07T19:29:47.702Z,97899.38
2019-05-07T19:32:17.520Z,97902.34
2019-05-07T19:34:47.242Z,97896.38
2019-05-07T19:37:16.778Z,97899.98
2019-05-07T19:39:46.298Z,97900.53
2019-05-07T19:42:15.742Z,97900.09
2019-05-07T19:44:45.153Z,97904.53
2019-05-07T19:47:14.666Z,97904.63
2019-05-07T19:49:44.189Z,97901.89
2019-05-07T19:52:13.612Z,97904.53
2019-05-07T19:54:57.699Z,97907.52
2019-05-07T19:57:21.120Z,97898.91
2019-05-07T19:59:52.269Z,97910.63
2019-05-07T20:02:26.941Z,97901.89
2019-05-07T20:04:55.807Z,97907.63
2019-05-07T20:07:25.224Z,97906.14
2019-05-07T20:09:54.645Z,97906.77
2019-05-07T20:12:24.175Z,97908.95
2019-05-07T20:14:53.706Z,97903.00
2019-05-07T20:17:23.173Z,97905.07
2019-05-07T20:19:52.788Z,97916.64
2019-05-07T20:22:22.280Z,97914.73
2019-05-07T20:24:52.747Z,97921.83
2019-05-07T20:27:23.245Z,97925.66
2019-05-07T20:29:52.847Z,97919.70
2019-05-07T20:32:22.607Z,97920.84
2019-05-07T20:34:52.176Z,97922.97
2019-05-07T20:37:22.088Z,97922.97
2019-05-07T20:39:52.375Z,97925.55
2019-05-07T20:42:23.114Z,97914.73
2019-05-07T20:44:53.215Z,97923.25
2019-05-07T20:47:22.750Z,97921.56
2019-05-07T20:49:52.267Z,97921.99
2019-05-07T20:52:22.966Z,97918.76
2019-05-07T20:55:30.896Z,97917.78
2019-05-07T20:57:58.545Z,97929.26
2019-05-07T21:00:29.058Z,97925.92
2019-05-07T21:03:16.634Z,97923.62
2019-05-07T21:05:46.184Z,97928.17
2019-05-07T21:08:15.923Z,97926.64
2019-05-07T21:10:45.734Z,97928.09
2019-05-07T21:13:27.673Z,97931.64
2019-05-07T21:15:46.812Z,97932.84
2019-05-07T21:18:16.675Z,97930.62
2019-05-07T21:20:46.409Z,97930.72
2019-05-07T21:23:16.104Z,97935.96
2019-05-07T21:25:46.136Z,97935.24
2019-05-07T21:28:16.056Z,97936.89
2019-05-07T21:30:45.590Z,97936.28
2019-05-07T21:33:15.244Z,97933.56
2019-05-07T21:35:44.671Z,97933.30
2019-05-07T21:38:14.407Z,97933.44
2019-05-07T21:40:44.337Z,97931.31
2019-05-07T21:43:14.291Z,97935.34
2019-05-07T21:45:44.107Z,97933.08
2019-05-07T21:48:13.887Z,97927.14
2019-05-07T21:50:43.791Z,97933.67
2019-05-07T21:53:27.919Z,97924.41
2019-05-07T21:56:13.610Z,97934.30
2019-05-07T21:58:49.524Z,97933.31
2019-05-07T22:01:32.734Z,97929.67
2019-05-07T22:04:02.288Z,97929.38
2019-05-07T22:06:31.931Z,97921.52
2019-05-07T22:09:01.977Z,97920.98
2019-05-07T22:11:32.355Z,97928.80
2019-05-07T22:14:02.340Z,97927.10
2019-05-07T22:16:32.857Z,97919.78
2019-05-07T22:19:02.915Z,97924.53
2019-05-07T22:21:34.283Z,97924.16
2019-05-07T22:24:04.551Z,97927.25
2019-05-07T22:26:34.176Z,97925.94
2019-05-07T22:29:04.136Z,97928.07
2019-05-07T22:31:53.007Z,97925.12
2019-05-07T22:34:59.906Z,97929.38
2019-05-07T22:37:29.833Z,97928.07
2019-05-07T22:39:59.254Z,97927.25
2019-05-07T22:42:29.085Z,97924.63
2019-05-07T22:44:58.612Z,97925.45
2019-05-07T22:47:28.022Z,97925.03
2019-05-07T22:49:57.547Z,97919.69
2019-05-07T22:52:27.085Z,97922.90
2019-05-07T22:54:56.873Z,97922.95
2019-05-07T22:57:44.146Z,97924.80
2019-05-07T23:00:22.663Z,97926.53
2019-05-07T23:02:53.954Z,97920.87
2019-05-07T23:05:23.722Z,97934.02
2019-05-07T23:07:53.120Z,97932.22
2019-05-07T23:10:22.670Z,97931.34
2019-05-07T23:12:52.179Z,97930.75
2019-05-07T23:15:22.585Z,97933.38
2019-05-07T23:17:52.540Z,97937.59
2019-05-07T23:20:24.478Z,97929.23
2019-05-07T23:22:53.863Z,97930.94
2019-05-07T23:25:24.561Z,97929.67
2019-05-07T23:27:54.547Z,97932.30
2019-05-07T23:30:24.278Z,97936.11
2019-05-07T23:32:54.000Z,97936.70
2019-05-07T23:35:23.511Z,97940.59
2019-05-07T23:37:53.244Z,97932.12
2019-05-07T23:40:43.455Z,97936.50
2019-05-07T23:43:16.165Z,97933.98
2019-05-07T23:45:45.846Z,97936.70
2019-05-07T23:48:15.636Z,97944.02
2019-05-07T23:50:45.054Z,97940.59
2019-05-07T23:53:14.484Z,97943.70
2019-05-07T23:55:44.011Z,97938.03
2019-05-07T23:58:14.145Z,97938.50
